sensor_id;sensor_type;location;lat;lon;timestamp;P1;durP1;ratioP1;P2;durP2;ratioP2
38653;SDS011;24413;52.450;20.706;2022-12-29T00:01:36;17.60;;;9.90;;
38653;SDS011;24413;52.450;20.706;2022-12-29T00:04:02;19.63;;;10.90;;
38653;SDS011;24413;52.450;20.706;2022-12-29T00:06:29;17.42;;;9.98;;
38653;SDS011;24413;52.450;20.706;2022-12-29T00:08:54;16.80;;;11.10;;
38653;SDS011;24413;52.450;20.706;2022-12-29T00:11:21;16.08;;;9.45;;
38653;SDS011;24413;52.450;20.706;2022-12-29T00:13:50;25.75;;;12.00;;
38653;SDS011;24413;52.450;20.706;2022-12-29T00:16:35;21.73;;;11.45;;
38653;SDS011;24413;52.450;20.706;2022-12-29T00:19:02;20.98;;;11.90;;
38653;SDS011;24413;52.450;20.706;2022-12-29T00:21:28;17.10;;;10.93;;
38653;SDS011;24413;52.450;20.706;2022-12-29T00:29:44;19.23;;;10.90;;
38653;SDS011;24413;52.450;20.706;2022-12-29T00:32:28;18.45;;;9.55;;
38653;SDS011;24413;52.450;20.706;2022-12-29T00:35:13;17.05;;;9.95;;
38653;SDS011;24413;52.450;20.706;2022-12-29T00:37:43;17.77;;;10.18;;
38653;SDS011;24413;52.450;20.706;2022-12-29T00:40:29;22.25;;;10.32;;
38653;SDS011;24413;52.450;20.706;2022-12-29T00:43:13;16.02;;;9.90;;
38653;SDS011;24413;52.450;20.706;2022-12-29T00:45:57;19.45;;;9.43;;
38653;SDS011;24413;52.450;20.706;2022-12-29T00:48:22;15.73;;;8.55;;
38653;SDS011;24413;52.450;20.706;2022-12-29T00:51:06;19.75;;;10.38;;
38653;SDS011;24413;52.450;20.706;2022-12-29T00:53:32;21.48;;;10.98;;
38653;SDS011;24413;52.450;20.706;2022-12-29T00:55:58;17.23;;;9.35;;
38653;SDS011;24413;52.450;20.706;2022-12-29T00:58:25;17.63;;;9.48;;
38653;SDS011;24413;52.450;20.706;2022-12-29T01:00:52;20.42;;;10.00;;
38653;SDS011;24413;52.450;20.706;2022-12-29T01:03:17;20.33;;;11.25;;
38653;SDS011;24413;52.450;20.706;2022-12-29T01:05:43;17.48;;;9.85;;
38653;SDS011;24413;52.450;20.706;2022-12-29T01:08:09;16.13;;;8.50;;
38653;SDS011;24413;52.450;20.706;2022-12-29T01:10:34;17.88;;;9.55;;
38653;SDS011;24413;52.450;20.706;2022-12-29T01:12:59;17.70;;;8.32;;
38653;SDS011;24413;52.450;20.706;2022-12-29T01:15:25;19.60;;;10.23;;
38653;SDS011;24413;52.450;20.706;2022-12-29T01:17:50;17.63;;;9.02;;
38653;SDS011;24413;52.450;20.706;2022-12-29T01:20:16;15.85;;;9.98;;
38653;SDS011;24413;52.450;20.706;2022-12-29T01:22:41;21.70;;;11.35;;
38653;SDS011;24413;52.450;20.706;2022-12-29T01:25:07;14.77;;;9.18;;
38653;SDS011;24413;52.450;20.706;2022-12-29T01:27:33;14.15;;;8.10;;
38653;SDS011;24413;52.450;20.706;2022-12-29T01:29:58;16.60;;;9.45;;
38653;SDS011;24413;52.450;20.706;2022-12-29T01:32:23;14.43;;;8.57;;
38653;SDS011;24413;52.450;20.706;2022-12-29T01:34:49;12.38;;;8.77;;
38653;SDS011;24413;52.450;20.706;2022-12-29T01:37:14;15.55;;;8.30;;
38653;SDS011;24413;52.450;20.706;2022-12-29T01:39:39;14.48;;;8.20;;
38653;SDS011;24413;52.450;20.706;2022-12-29T01:42:05;15.57;;;8.10;;
38653;SDS011;24413;52.450;20.706;2022-12-29T01:49:55;15.63;;;8.60;;
38653;SDS011;24413;52.450;20.706;2022-12-29T01:52:23;14.90;;;9.18;;
38653;SDS011;24413;52.450;20.706;2022-12-29T01:54:50;14.35;;;8.07;;
38653;SDS011;24413;52.450;20.706;2022-12-29T01:57:20;13.07;;;7.60;;
38653;SDS011;24413;52.450;20.706;2022-12-29T01:59:59;16.35;;;8.27;;
38653;SDS011;24413;52.450;20.706;2022-12-29T02:02:28;12.75;;;7.07;;
38653;SDS011;24413;52.450;20.706;2022-12-29T02:04:54;14.20;;;8.35;;
38653;SDS011;24413;52.450;20.706;2022-12-29T02:07:21;11.98;;;7.45;;
38653;SDS011;24413;52.450;20.706;2022-12-29T02:09:51;15.27;;;8.48;;
38653;SDS011;24413;52.450;20.706;2022-12-29T02:12:18;18.45;;;7.97;;
38653;SDS011;24413;52.450;20.706;2022-12-29T02:14:45;14.85;;;8.20;;
38653;SDS011;24413;52.450;20.706;2022-12-29T02:36:14;12.13;;;7.47;;
38653;SDS011;24413;52.450;20.706;2022-12-29T02:38:51;12.32;;;6.20;;
38653;SDS011;24413;52.450;20.706;2022-12-29T02:44:25;12.93;;;8.32;;
38653;SDS011;24413;52.450;20.706;2022-12-29T02:46:53;14.05;;;7.65;;
38653;SDS011;24413;52.450;20.706;2022-12-29T02:49:30;16.98;;;8.10;;
38653;SDS011;24413;52.450;20.706;2022-12-29T02:54:27;12.20;;;7.15;;
38653;SDS011;24413;52.450;20.706;2022-12-29T02:59:49;18.63;;;8.00;;
38653;SDS011;24413;52.450;20.706;2022-12-29T03:13:10;16.30;;;10.07;;
38653;SDS011;24413;52.450;20.706;2022-12-29T03:18:57;20.42;;;10.10;;
38653;SDS011;24413;52.450;20.706;2022-12-29T03:24:43;16.42;;;8.80;;
38653;SDS011;24413;52.450;20.706;2022-12-29T03:27:13;14.57;;;10.68;;
38653;SDS011;24413;52.450;20.706;2022-12-29T03:29:42;16.60;;;9.52;;
38653;SDS011;24413;52.450;20.706;2022-12-29T03:32:17;12.20;;;7.03;;
38653;SDS011;24413;52.450;20.706;2022-12-29T03:34:44;13.18;;;7.95;;
38653;SDS011;24413;52.450;20.706;2022-12-29T03:37:12;16.52;;;8.82;;
38653;SDS011;24413;52.450;20.706;2022-12-29T03:39:40;14.85;;;9.38;;
38653;SDS011;24413;52.450;20.706;2022-12-29T03:42:08;14.57;;;8.38;;
38653;SDS011;24413;52.450;20.706;2022-12-29T03:44:36;12.13;;;7.22;;
38653;SDS011;24413;52.450;20.706;2022-12-29T03:47:04;15.88;;;7.90;;
38653;SDS011;24413;52.450;20.706;2022-12-29T03:49:31;12.23;;;7.55;;
38653;SDS011;24413;52.450;20.706;2022-12-29T03:51:56;16.58;;;7.85;;
38653;SDS011;24413;52.450;20.706;2022-12-29T03:54:21;15.57;;;8.10;;
38653;SDS011;24413;52.450;20.706;2022-12-29T03:56:47;18.63;;;8.85;;
38653;SDS011;24413;52.450;20.706;2022-12-29T03:59:12;13.25;;;8.63;;
38653;SDS011;24413;52.450;20.706;2022-12-29T04:01:37;18.40;;;9.60;;
38653;SDS011;24413;52.450;20.706;2022-12-29T04:04:03;11.27;;;8.35;;
38653;SDS011;24413;52.450;20.706;2022-12-29T04:06:28;22.17;;;12.32;;
38653;SDS011;24413;52.450;20.706;2022-12-29T04:08:54;28.45;;;17.92;;
38653;SDS011;24413;52.450;20.706;2022-12-29T04:11:20;46.15;;;28.20;;
38653;SDS011;24413;52.450;20.706;2022-12-29T04:13:46;28.38;;;17.40;;
38653;SDS011;24413;52.450;20.706;2022-12-29T04:16:11;40.80;;;31.20;;
38653;SDS011;24413;52.450;20.706;2022-12-29T04:18:37;55.47;;;35.75;;
38653;SDS011;24413;52.450;20.706;2022-12-29T04:21:02;57.00;;;38.75;;
38653;SDS011;24413;52.450;20.706;2022-12-29T04:23:38;64.85;;;41.00;;
38653;SDS011;24413;52.450;20.706;2022-12-29T04:26:04;39.88;;;28.10;;
38653;SDS011;24413;52.450;20.706;2022-12-29T04:28:34;26.63;;;19.25;;
38653;SDS011;24413;52.450;20.706;2022-12-29T04:31:00;17.60;;;12.48;;
38653;SDS011;24413;52.450;20.706;2022-12-29T04:33:25;15.20;;;10.40;;
38653;SDS011;24413;52.450;20.706;2022-12-29T04:35:51;28.02;;;20.67;;
38653;SDS011;24413;52.450;20.706;2022-12-29T04:38:19;27.98;;;23.33;;
38653;SDS011;24413;52.450;20.706;2022-12-29T04:40:44;24.75;;;17.83;;
38653;SDS011;24413;52.450;20.706;2022-12-29T04:43:10;20.67;;;15.45;;
38653;SDS011;24413;52.450;20.706;2022-12-29T04:45:36;23.20;;;16.45;;
38653;SDS011;24413;52.450;20.706;2022-12-29T04:48:01;17.15;;;10.65;;
38653;SDS011;24413;52.450;20.706;2022-12-29T04:50:27;13.63;;;11.05;;
38653;SDS011;24413;52.450;20.706;2022-12-29T04:52:53;14.60;;;9.35;;
38653;SDS011;24413;52.450;20.706;2022-12-29T04:55:18;14.75;;;7.95;;
38653;SDS011;24413;52.450;20.706;2022-12-29T04:57:44;18.08;;;8.52;;
38653;SDS011;24413;52.450;20.706;2022-12-29T05:00:09;13.88;;;7.50;;
38653;SDS011;24413;52.450;20.706;2022-12-29T05:02:36;8.15;;;5.40;;
38653;SDS011;24413;52.450;20.706;2022-12-29T05:05:02;9.77;;;6.65;;
38653;SDS011;24413;52.450;20.706;2022-12-29T05:07:28;10.65;;;6.82;;
38653;SDS011;24413;52.450;20.706;2022-12-29T05:09:53;8.85;;;6.05;;
38653;SDS011;24413;52.450;20.706;2022-12-29T05:12:19;13.35;;;6.93;;
38653;SDS011;24413;52.450;20.706;2022-12-29T05:14:44;11.52;;;7.20;;
38653;SDS011;24413;52.450;20.706;2022-12-29T05:17:10;10.88;;;6.60;;
38653;SDS011;24413;52.450;20.706;2022-12-29T05:19:35;13.43;;;7.32;;
38653;SDS011;24413;52.450;20.706;2022-12-29T05:22:00;10.68;;;5.80;;
38653;SDS011;24413;52.450;20.706;2022-12-29T05:24:26;13.77;;;6.70;;
38653;SDS011;24413;52.450;20.706;2022-12-29T05:26:51;12.57;;;6.70;;
38653;SDS011;24413;52.450;20.706;2022-12-29T05:29:16;9.65;;;7.03;;
38653;SDS011;24413;52.450;20.706;2022-12-29T05:31:42;13.18;;;7.00;;
38653;SDS011;24413;52.450;20.706;2022-12-29T05:34:09;13.32;;;7.60;;
38653;SDS011;24413;52.450;20.706;2022-12-29T05:36:36;17.48;;;8.95;;
38653;SDS011;24413;52.450;20.706;2022-12-29T05:39:01;14.75;;;8.25;;
38653;SDS011;24413;52.450;20.706;2022-12-29T05:41:26;35.47;;;18.30;;
38653;SDS011;24413;52.450;20.706;2022-12-29T05:43:52;21.45;;;10.60;;
38653;SDS011;24413;52.450;20.706;2022-12-29T05:46:17;21.55;;;11.95;;
38653;SDS011;24413;52.450;20.706;2022-12-29T05:48:42;20.40;;;10.88;;
38653;SDS011;24413;52.450;20.706;2022-12-29T05:51:08;51.25;;;27.35;;
38653;SDS011;24413;52.450;20.706;2022-12-29T05:53:33;15.07;;;10.73;;
38653;SDS011;24413;52.450;20.706;2022-12-29T05:55:59;17.20;;;9.75;;
38653;SDS011;24413;52.450;20.706;2022-12-29T05:58:24;12.43;;;6.93;;
38653;SDS011;24413;52.450;20.706;2022-12-29T06:00:49;10.52;;;6.60;;
38653;SDS011;24413;52.450;20.706;2022-12-29T06:03:15;10.23;;;6.00;;
38653;SDS011;24413;52.450;20.706;2022-12-29T06:05:41;8.90;;;5.45;;
38653;SDS011;24413;52.450;20.706;2022-12-29T06:08:06;13.07;;;5.65;;
38653;SDS011;24413;52.450;20.706;2022-12-29T06:10:31;9.80;;;6.18;;
38653;SDS011;24413;52.450;20.706;2022-12-29T06:12:57;11.70;;;6.40;;
38653;SDS011;24413;52.450;20.706;2022-12-29T06:15:22;28.25;;;16.17;;
38653;SDS011;24413;52.450;20.706;2022-12-29T06:17:48;8.52;;;5.55;;
38653;SDS011;24413;52.450;20.706;2022-12-29T06:20:13;13.05;;;6.57;;
38653;SDS011;24413;52.450;20.706;2022-12-29T06:22:38;11.98;;;6.32;;
38653;SDS011;24413;52.450;20.706;2022-12-29T06:25:04;13.63;;;7.18;;
38653;SDS011;24413;52.450;20.706;2022-12-29T06:27:30;12.00;;;6.78;;
38653;SDS011;24413;52.450;20.706;2022-12-29T06:29:55;12.63;;;6.32;;
38653;SDS011;24413;52.450;20.706;2022-12-29T06:32:21;13.88;;;8.80;;
38653;SDS011;24413;52.450;20.706;2022-12-29T06:34:46;17.17;;;10.50;;
38653;SDS011;24413;52.450;20.706;2022-12-29T06:37:12;18.92;;;10.80;;
38653;SDS011;24413;52.450;20.706;2022-12-29T06:39:38;15.60;;;10.48;;
38653;SDS011;24413;52.450;20.706;2022-12-29T06:42:03;37.92;;;17.20;;
38653;SDS011;24413;52.450;20.706;2022-12-29T06:44:29;38.80;;;16.83;;
38653;SDS011;24413;52.450;20.706;2022-12-29T06:46:54;35.17;;;15.55;;
38653;SDS011;24413;52.450;20.706;2022-12-29T06:49:19;45.22;;;19.23;;
38653;SDS011;24413;52.450;20.706;2022-12-29T06:51:45;43.15;;;19.33;;
38653;SDS011;24413;52.450;20.706;2022-12-29T06:54:10;28.63;;;14.10;;
38653;SDS011;24413;52.450;20.706;2022-12-29T06:56:36;19.63;;;11.15;;
38653;SDS011;24413;52.450;20.706;2022-12-29T06:59:01;17.50;;;8.23;;
38653;SDS011;24413;52.450;20.706;2022-12-29T07:01:27;13.82;;;7.78;;
38653;SDS011;24413;52.450;20.706;2022-12-29T07:03:52;15.27;;;8.23;;
38653;SDS011;24413;52.450;20.706;2022-12-29T07:06:17;15.35;;;7.85;;
38653;SDS011;24413;52.450;20.706;2022-12-29T07:08:43;11.13;;;7.43;;
38653;SDS011;24413;52.450;20.706;2022-12-29T07:11:08;16.23;;;7.97;;
38653;SDS011;24413;52.450;20.706;2022-12-29T07:13:34;15.75;;;8.68;;
38653;SDS011;24413;52.450;20.706;2022-12-29T07:16:04;13.07;;;8.13;;
38653;SDS011;24413;52.450;20.706;2022-12-29T07:18:30;18.25;;;9.70;;
38653;SDS011;24413;52.450;20.706;2022-12-29T07:20:55;13.05;;;7.63;;
38653;SDS011;24413;52.450;20.706;2022-12-29T07:23:21;22.88;;;9.55;;
38653;SDS011;24413;52.450;20.706;2022-12-29T07:25:46;20.35;;;13.80;;
38653;SDS011;24413;52.450;20.706;2022-12-29T07:28:12;25.17;;;13.75;;
38653;SDS011;24413;52.450;20.706;2022-12-29T07:30:37;24.98;;;13.10;;
38653;SDS011;24413;52.450;20.706;2022-12-29T07:33:03;35.00;;;14.43;;
38653;SDS011;24413;52.450;20.706;2022-12-29T07:35:28;26.55;;;11.68;;
38653;SDS011;24413;52.450;20.706;2022-12-29T07:37:54;14.80;;;9.70;;
38653;SDS011;24413;52.450;20.706;2022-12-29T07:40:19;24.30;;;11.25;;
38653;SDS011;24413;52.450;20.706;2022-12-29T07:42:45;15.70;;;9.02;;
38653;SDS011;24413;52.450;20.706;2022-12-29T07:45:10;13.85;;;8.27;;
38653;SDS011;24413;52.450;20.706;2022-12-29T07:47:35;12.82;;;6.20;;
38653;SDS011;24413;52.450;20.706;2022-12-29T07:50:01;15.30;;;9.15;;
38653;SDS011;24413;52.450;20.706;2022-12-29T07:52:26;28.83;;;14.07;;
38653;SDS011;24413;52.450;20.706;2022-12-29T07:54:52;38.50;;;18.52;;
38653;SDS011;24413;52.450;20.706;2022-12-29T07:57:17;15.57;;;7.78;;
38653;SDS011;24413;52.450;20.706;2022-12-29T07:59:42;15.73;;;8.07;;
38653;SDS011;24413;52.450;20.706;2022-12-29T08:02:09;14.25;;;7.80;;
38653;SDS011;24413;52.450;20.706;2022-12-29T08:04:36;18.17;;;9.82;;
38653;SDS011;24413;52.450;20.706;2022-12-29T08:07:01;15.43;;;8.23;;
38653;SDS011;24413;52.450;20.706;2022-12-29T08:09:27;12.23;;;8.18;;
38653;SDS011;24413;52.450;20.706;2022-12-29T08:11:53;14.77;;;8.13;;
38653;SDS011;24413;52.450;20.706;2022-12-29T08:14:18;12.85;;;6.72;;
38653;SDS011;24413;52.450;20.706;2022-12-29T08:16:44;12.25;;;6.80;;
38653;SDS011;24413;52.450;20.706;2022-12-29T08:19:10;12.77;;;7.25;;
38653;SDS011;24413;52.450;20.706;2022-12-29T08:21:36;14.32;;;7.30;;
38653;SDS011;24413;52.450;20.706;2022-12-29T08:24:02;18.40;;;10.65;;
38653;SDS011;24413;52.450;20.706;2022-12-29T08:26:27;19.52;;;9.20;;
38653;SDS011;24413;52.450;20.706;2022-12-29T08:28:53;32.65;;;13.93;;
38653;SDS011;24413;52.450;20.706;2022-12-29T08:31:20;17.75;;;8.77;;
38653;SDS011;24413;52.450;20.706;2022-12-29T08:33:46;25.15;;;8.63;;
38653;SDS011;24413;52.450;20.706;2022-12-29T08:36:12;21.35;;;10.90;;
38653;SDS011;24413;52.450;20.706;2022-12-29T08:38:37;19.83;;;8.90;;
38653;SDS011;24413;52.450;20.706;2022-12-29T08:41:03;18.70;;;8.70;;
38653;SDS011;24413;52.450;20.706;2022-12-29T08:43:29;21.40;;;11.65;;
38653;SDS011;24413;52.450;20.706;2022-12-29T08:45:55;24.77;;;11.68;;
38653;SDS011;24413;52.450;20.706;2022-12-29T08:48:21;25.20;;;11.63;;
38653;SDS011;24413;52.450;20.706;2022-12-29T08:50:47;13.15;;;6.85;;
38653;SDS011;24413;52.450;20.706;2022-12-29T08:53:13;19.42;;;9.07;;
38653;SDS011;24413;52.450;20.706;2022-12-29T08:55:39;10.93;;;7.00;;
38653;SDS011;24413;52.450;20.706;2022-12-29T08:58:04;12.57;;;6.55;;
38653;SDS011;24413;52.450;20.706;2022-12-29T09:00:30;11.73;;;5.90;;
38653;SDS011;24413;52.450;20.706;2022-12-29T09:02:57;13.80;;;7.63;;
38653;SDS011;24413;52.450;20.706;2022-12-29T09:05:23;16.92;;;6.95;;
38653;SDS011;24413;52.450;20.706;2022-12-29T09:07:48;14.68;;;7.55;;
38653;SDS011;24413;52.450;20.706;2022-12-29T09:10:14;12.82;;;6.15;;
38653;SDS011;24413;52.450;20.706;2022-12-29T09:12:39;17.02;;;8.40;;
38653;SDS011;24413;52.450;20.706;2022-12-29T09:15:05;11.20;;;7.35;;
38653;SDS011;24413;52.450;20.706;2022-12-29T09:17:31;22.83;;;9.98;;
38653;SDS011;24413;52.450;20.706;2022-12-29T09:20:16;19.92;;;13.05;;
38653;SDS011;24413;52.450;20.706;2022-12-29T09:22:42;12.05;;;7.50;;
38653;SDS011;24413;52.450;20.706;2022-12-29T09:25:09;13.38;;;7.32;;
38653;SDS011;24413;52.450;20.706;2022-12-29T09:27:35;15.35;;;9.05;;
38653;SDS011;24413;52.450;20.706;2022-12-29T09:30:01;23.23;;;11.20;;
38653;SDS011;24413;52.450;20.706;2022-12-29T09:32:27;14.90;;;8.15;;
38653;SDS011;24413;52.450;20.706;2022-12-29T09:34:52;18.35;;;7.57;;
38653;SDS011;24413;52.450;20.706;2022-12-29T09:37:18;13.63;;;7.72;;
38653;SDS011;24413;52.450;20.706;2022-12-29T09:39:43;13.80;;;8.55;;
38653;SDS011;24413;52.450;20.706;2022-12-29T09:42:12;9.73;;;6.00;;
38653;SDS011;24413;52.450;20.706;2022-12-29T09:47:16;16.17;;;10.60;;
38653;SDS011;24413;52.450;20.706;2022-12-29T09:49:47;21.98;;;12.32;;
38653;SDS011;24413;52.450;20.706;2022-12-29T09:52:19;19.42;;;9.25;;
38653;SDS011;24413;52.450;20.706;2022-12-29T09:55:10;15.57;;;7.65;;
38653;SDS011;24413;52.450;20.706;2022-12-29T10:06:10;16.27;;;8.45;;
38653;SDS011;24413;52.450;20.706;2022-12-29T10:08:44;14.27;;;8.73;;
38653;SDS011;24413;52.450;20.706;2022-12-29T10:11:24;27.00;;;10.27;;
38653;SDS011;24413;52.450;20.706;2022-12-29T10:22:34;13.88;;;8.55;;
38653;SDS011;24413;52.450;20.706;2022-12-29T10:25:25;29.88;;;12.90;;
38653;SDS011;24413;52.450;20.706;2022-12-29T10:27:52;30.73;;;16.65;;
38653;SDS011;24413;52.450;20.706;2022-12-29T10:30:20;31.05;;;15.63;;
38653;SDS011;24413;52.450;20.706;2022-12-29T10:32:52;40.15;;;20.08;;
38653;SDS011;24413;52.450;20.706;2022-12-29T10:35:22;45.80;;;22.27;;
38653;SDS011;24413;52.450;20.706;2022-12-29T10:43:32;24.67;;;11.15;;
38653;SDS011;24413;52.450;20.706;2022-12-29T10:46:01;12.27;;;7.35;;
38653;SDS011;24413;52.450;20.706;2022-12-29T10:48:29;36.53;;;16.60;;
38653;SDS011;24413;52.450;20.706;2022-12-29T10:50:56;25.88;;;11.50;;
38653;SDS011;24413;52.450;20.706;2022-12-29T10:53:24;19.02;;;8.38;;
38653;SDS011;24413;52.450;20.706;2022-12-29T10:55:52;45.47;;;23.35;;
38653;SDS011;24413;52.450;20.706;2022-12-29T10:58:18;73.60;;;36.00;;
38653;SDS011;24413;52.450;20.706;2022-12-29T11:00:49;29.48;;;13.48;;
38653;SDS011;24413;52.450;20.706;2022-12-29T11:06:13;46.17;;;20.08;;
38653;SDS011;24413;52.450;20.706;2022-12-29T11:11:41;24.60;;;13.18;;
38653;SDS011;24413;52.450;20.706;2022-12-29T11:14:16;66.70;;;33.28;;
38653;SDS011;24413;52.450;20.706;2022-12-29T11:16:43;27.75;;;13.13;;
38653;SDS011;24413;52.450;20.706;2022-12-29T11:19:20;18.60;;;9.38;;
38653;SDS011;24413;52.450;20.706;2022-12-29T11:21:50;38.60;;;21.80;;
38653;SDS011;24413;52.450;20.706;2022-12-29T11:24:23;94.28;;;46.45;;
38653;SDS011;24413;52.450;20.706;2022-12-29T11:26:51;20.73;;;9.43;;
38653;SDS011;24413;52.450;20.706;2022-12-29T11:29:23;16.95;;;7.85;;
38653;SDS011;24413;52.450;20.706;2022-12-29T11:31:52;13.18;;;7.22;;
38653;SDS011;24413;52.450;20.706;2022-12-29T11:36:50;16.50;;;9.27;;
38653;SDS011;24413;52.450;20.706;2022-12-29T11:42:20;16.73;;;8.88;;
38653;SDS011;24413;52.450;20.706;2022-12-29T11:45:29;36.60;;;17.60;;
38653;SDS011;24413;52.450;20.706;2022-12-29T11:48:07;23.10;;;9.45;;
38653;SDS011;24413;52.450;20.706;2022-12-29T11:50:35;31.10;;;15.40;;
38653;SDS011;24413;52.450;20.706;2022-12-29T11:53:07;34.50;;;15.48;;
38653;SDS011;24413;52.450;20.706;2022-12-29T11:55:50;58.08;;;27.98;;
38653;SDS011;24413;52.450;20.706;2022-12-29T11:58:17;19.90;;;10.55;;
38653;SDS011;24413;52.450;20.706;2022-12-29T12:00:42;14.45;;;9.15;;
38653;SDS011;24413;52.450;20.706;2022-12-29T12:03:17;29.77;;;13.57;;
38653;SDS011;24413;52.450;20.706;2022-12-29T12:05:52;25.63;;;11.32;;
38653;SDS011;24413;52.450;20.706;2022-12-29T12:08:28;12.55;;;8.43;;
38653;SDS011;24413;52.450;20.706;2022-12-29T12:13:31;43.33;;;20.20;;
38653;SDS011;24413;52.450;20.706;2022-12-29T12:16:02;18.67;;;8.30;;
38653;SDS011;24413;52.450;20.706;2022-12-29T12:21:38;46.45;;;20.83;;
38653;SDS011;24413;52.450;20.706;2022-12-29T12:27:24;48.17;;;17.80;;
38653;SDS011;24413;52.450;20.706;2022-12-29T12:29:52;42.95;;;17.65;;
38653;SDS011;24413;52.450;20.706;2022-12-29T12:34:50;27.92;;;13.32;;
38653;SDS011;24413;52.450;20.706;2022-12-29T12:48:15;39.17;;;18.25;;
38653;SDS011;24413;52.450;20.706;2022-12-29T12:51:03;29.08;;;13.95;;
38653;SDS011;24413;52.450;20.706;2022-12-29T13:13:09;52.00;;;23.55;;
38653;SDS011;24413;52.450;20.706;2022-12-29T13:16:02;39.42;;;16.73;;
38653;SDS011;24413;52.450;20.706;2022-12-29T13:21:18;40.45;;;18.63;;
38653;SDS011;24413;52.450;20.706;2022-12-29T13:26:35;36.30;;;16.08;;
38653;SDS011;24413;52.450;20.706;2022-12-29T13:29:06;110.45;;;56.17;;
38653;SDS011;24413;52.450;20.706;2022-12-29T13:37:03;46.75;;;20.40;;
38653;SDS011;24413;52.450;20.706;2022-12-29T13:39:40;53.78;;;20.35;;
38653;SDS011;24413;52.450;20.706;2022-12-29T13:42:08;29.08;;;14.75;;
38653;SDS011;24413;52.450;20.706;2022-12-29T13:44:39;43.38;;;20.73;;
38653;SDS011;24413;52.450;20.706;2022-12-29T13:47:17;29.83;;;15.15;;
38653;SDS011;24413;52.450;20.706;2022-12-29T13:49:52;23.58;;;11.88;;
38653;SDS011;24413;52.450;20.706;2022-12-29T13:52:21;28.60;;;11.60;;
38653;SDS011;24413;52.450;20.706;2022-12-29T13:57:59;33.35;;;14.77;;
38653;SDS011;24413;52.450;20.706;2022-12-29T14:00:29;28.50;;;14.82;;
38653;SDS011;24413;52.450;20.706;2022-12-29T14:03:10;28.40;;;15.55;;
38653;SDS011;24413;52.450;20.706;2022-12-29T14:05:42;23.42;;;12.32;;
38653;SDS011;24413;52.450;20.706;2022-12-29T14:08:17;19.48;;;11.20;;
38653;SDS011;24413;52.450;20.706;2022-12-29T14:10:52;29.75;;;13.60;;
38653;SDS011;24413;52.450;20.706;2022-12-29T14:13:21;24.58;;;12.35;;
38653;SDS011;24413;52.450;20.706;2022-12-29T14:15:54;35.30;;;15.50;;
38653;SDS011;24413;52.450;20.706;2022-12-29T14:18:26;25.45;;;11.52;;
38653;SDS011;24413;52.450;20.706;2022-12-29T14:23:40;29.50;;;14.70;;
38653;SDS011;24413;52.450;20.706;2022-12-29T14:31:01;46.50;;;20.92;;
38653;SDS011;24413;52.450;20.706;2022-12-29T14:33:29;51.20;;;23.63;;
38653;SDS011;24413;52.450;20.706;2022-12-29T14:35:56;45.33;;;21.05;;
38653;SDS011;24413;52.450;20.706;2022-12-29T14:38:24;57.85;;;23.30;;
38653;SDS011;24413;52.450;20.706;2022-12-29T14:40:51;68.15;;;28.13;;
38653;SDS011;24413;52.450;20.706;2022-12-29T14:43:22;45.95;;;23.25;;
38653;SDS011;24413;52.450;20.706;2022-12-29T14:45:59;47.05;;;22.75;;
38653;SDS011;24413;52.450;20.706;2022-12-29T14:51:21;32.53;;;17.13;;
38653;SDS011;24413;52.450;20.706;2022-12-29T14:53:56;35.78;;;17.05;;
38653;SDS011;24413;52.450;20.706;2022-12-29T14:56:28;68.72;;;33.45;;
38653;SDS011;24413;52.450;20.706;2022-12-29T14:59:01;72.47;;;34.47;;
38653;SDS011;24413;52.450;20.706;2022-12-29T15:01:42;44.25;;;20.05;;
38653;SDS011;24413;52.450;20.706;2022-12-29T15:04:14;39.67;;;21.27;;
38653;SDS011;24413;52.450;20.706;2022-12-29T15:06:42;33.40;;;17.75;;
38653;SDS011;24413;52.450;20.706;2022-12-29T15:09:12;34.90;;;19.73;;
38653;SDS011;24413;52.450;20.706;2022-12-29T15:11:53;57.95;;;28.50;;
38653;SDS011;24413;52.450;20.706;2022-12-29T15:14:29;70.57;;;36.03;;
38653;SDS011;24413;52.450;20.706;2022-12-29T15:16:59;38.15;;;21.92;;
38653;SDS011;24413;52.450;20.706;2022-12-29T15:19:26;38.03;;;20.55;;
38653;SDS011;24413;52.450;20.706;2022-12-29T15:21:52;37.35;;;23.33;;
38653;SDS011;24413;52.450;20.706;2022-12-29T15:24:18;37.80;;;21.23;;
38653;SDS011;24413;52.450;20.706;2022-12-29T15:26:49;36.80;;;18.67;;
38653;SDS011;24413;52.450;20.706;2022-12-29T15:31:54;37.67;;;19.80;;
38653;SDS011;24413;52.450;20.706;2022-12-29T15:34:20;62.33;;;36.08;;
38653;SDS011;24413;52.450;20.706;2022-12-29T15:36:46;71.88;;;43.92;;
38653;SDS011;24413;52.450;20.706;2022-12-29T15:39:33;76.30;;;47.05;;
38653;SDS011;24413;52.450;20.706;2022-12-29T15:45:05;59.63;;;34.05;;
38653;SDS011;24413;52.450;20.706;2022-12-29T15:47:33;71.40;;;36.25;;
38653;SDS011;24413;52.450;20.706;2022-12-29T15:50:09;103.05;;;49.47;;
38653;SDS011;24413;52.450;20.706;2022-12-29T15:53:12;114.18;;;49.33;;
38653;SDS011;24413;52.450;20.706;2022-12-29T15:55:41;80.95;;;41.10;;
38653;SDS011;24413;52.450;20.706;2022-12-29T15:58:27;104.82;;;48.83;;
38653;SDS011;24413;52.450;20.706;2022-12-29T16:00:58;145.20;;;63.95;;
38653;SDS011;24413;52.450;20.706;2022-12-29T16:03:25;123.47;;;57.42;;
38653;SDS011;24413;52.450;20.706;2022-12-29T16:05:57;91.95;;;46.75;;
38653;SDS011;24413;52.450;20.706;2022-12-29T16:08:36;122.78;;;58.63;;
38653;SDS011;24413;52.450;20.706;2022-12-29T16:11:16;136.10;;;69.43;;
38653;SDS011;24413;52.450;20.706;2022-12-29T16:13:47;82.85;;;46.08;;
38653;SDS011;24413;52.450;20.706;2022-12-29T16:16:18;87.57;;;45.92;;
38653;SDS011;24413;52.450;20.706;2022-12-29T16:18:45;99.40;;;48.05;;
38653;SDS011;24413;52.450;20.706;2022-12-29T16:21:22;74.97;;;37.67;;
38653;SDS011;24413;52.450;20.706;2022-12-29T16:23:52;56.10;;;32.38;;
38653;SDS011;24413;52.450;20.706;2022-12-29T16:26:19;67.18;;;35.22;;
38653;SDS011;24413;52.450;20.706;2022-12-29T16:28:55;56.53;;;30.23;;
38653;SDS011;24413;52.450;20.706;2022-12-29T16:33:57;51.80;;;28.45;;
38653;SDS011;24413;52.450;20.706;2022-12-29T16:38:51;44.47;;;27.42;;
38653;SDS011;24413;52.450;20.706;2022-12-29T16:41:29;40.17;;;20.77;;
38653;SDS011;24413;52.450;20.706;2022-12-29T16:49:26;55.65;;;30.63;;
38653;SDS011;24413;52.450;20.706;2022-12-29T16:51:52;45.33;;;24.83;;
38653;SDS011;24413;52.450;20.706;2022-12-29T16:54:22;32.25;;;16.73;;
38653;SDS011;24413;52.450;20.706;2022-12-29T16:56:49;37.47;;;21.23;;
38653;SDS011;24413;52.450;20.706;2022-12-29T16:59:19;38.20;;;21.20;;
38653;SDS011;24413;52.450;20.706;2022-12-29T17:01:56;51.75;;;23.08;;
38653;SDS011;24413;52.450;20.706;2022-12-29T17:04:22;52.42;;;28.55;;
38653;SDS011;24413;52.450;20.706;2022-12-29T17:06:48;34.22;;;19.00;;
38653;SDS011;24413;52.450;20.706;2022-12-29T17:09:20;38.72;;;17.42;;
38653;SDS011;24413;52.450;20.706;2022-12-29T17:11:51;26.40;;;14.63;;
38653;SDS011;24413;52.450;20.706;2022-12-29T17:17:02;40.55;;;20.70;;
38653;SDS011;24413;52.450;20.706;2022-12-29T17:19:31;37.42;;;19.65;;
38653;SDS011;24413;52.450;20.706;2022-12-29T17:21:58;44.72;;;20.83;;